Maike D — V2FO4 — position and weather

sailwx.info

Track history (hours):
 
Tides and Currents Weather Stations Pressure Air Temp Water Temp Dewpoint Dewpoint Depression Visibility Wind Speed Wind Dir Waves Ship Positions

Maike D

Last reported at 2014-Aug-31 10:27 UTC. Time now 2014-Sep-01 18:48 UTC.
Position N 36°46' E 026°25'.

Length 133 m; draft 7 m.

Type: Ship (hazmat cat A). MMSI: 305739000.

Date/timePositionNaut miles runAvg speedWind from/ knotsBaromVisibWave heightAir tempDewpointWater temp
2014-Aug-31 10:27N 36°46' E 026°25'5313.5
2014-Aug-31 06:32N 37°32' E 025°53'  
2014-Aug-28 05:21N 40°44' E 028°37'1113.5
2014-Aug-28 04:33N 40°44' E 028°51'1313.3
2014-Aug-28 03:33N 40°44' E 029°09'1311.8
2014-Aug-28 02:27N 40°45' E 029°26'1011.3
2014-Aug-28 01:33N 40°45' E 029°39'8 0.7
2014-Aug-27 13:31N 40°45' E 029°29'9 9.2
2014-Aug-27 12:33N 40°44' E 029°17'1110.5
2014-Aug-27 11:33N 40°43' E 029°03'1313.0
2014-Aug-27 10:33N 40°36' E 028°49'17 1.3
2014-Aug-26 21:21N 40°25' E 029°05'308 6.6
2014-Aug-24 22:18N 43°26' E 034°40'1013.5
2014-Aug-24 21:33N 43°31' E 034°53'1413.5
2014-Aug-24 20:33N 43°37' E 035°09'1313.5
2014-Aug-24 19:33N 43°43' E 035°26'1413.5
2014-Aug-24 18:33N 43°49' E 035°43'1413.6
2014-Aug-24 17:33N 43°55' E 035°60'1413.6
2014-Aug-24 16:33N 44°01' E 036°17'1313.4
2014-Aug-24 15:33N 44°07' E 036°33'1413.6
2014-Aug-24 14:33N 44°14' E 036°50'1514.0
2014-Aug-24 13:31N 44°20' E 037°08'2813.8
2014-Aug-24 11:28N 44°34' E 037°43'1010.7
2014-Aug-24 10:34N 44°43' E 037°48'1 0.7
2014-Aug-24 09:31N 44°43' E 037°49'0 0.0
2014-Aug-24 08:31N 44°43' E 037°49'0 0.0
2014-Aug-24 07:31N 44°43' E 037°49'0 0.0
2014-Aug-24 06:31N 44°43' E 037°49'0 0.0
2014-Aug-24 05:31N 44°43' E 037°49'0 0.0
2014-Aug-24 04:31N 44°43' E 037°49'0 0.0
2014-Aug-24 03:31N 44°43' E 037°49'0 0.0
2014-Aug-24 02:31N 44°43' E 037°49'0 0.0
2014-Aug-24 01:31N 44°43' E 037°49'0 0.0
2014-Aug-24 00:31N 44°43' E 037°49'0 0.0
2014-Aug-23 23:31N 44°43' E 037°49'0 0.0
2014-Aug-23 22:31N 44°43' E 037°49'0 0.0
2014-Aug-23 21:31N 44°43' E 037°49'0 0.0
2014-Aug-23 20:31N 44°43' E 037°49'0 0.0
2014-Aug-23 19:31N 44°43' E 037°49'41211.7
2014-Aug-22 08:27N 41°24' E 029°35'1314.1
2014-Aug-22 07:32N 41°18' E 029°20'2511.4
2014-Aug-22 05:21N 40°59' E 028°60'1011.3
2014-Aug-22 04:30N 40°49' E 028°59'8 6.9
2014-Aug-22 03:22N 40°42' E 028°55'2 0.8
2014-Aug-22 01:19N 40°43' E 028°57'1 0.9
2014-Aug-22 00:13N 40°44' E 028°58'1 1.2
2014-Aug-21 23:31N 40°44' E 028°59'1 1.2
2014-Aug-21 22:25N 40°45' E 028°59'1 1.3
2014-Aug-21 21:25N 40°47' E 029°00'1 1.3
2014-Aug-21 20:19N 40°48' E 029°01'2 2.3
2014-Aug-21 19:33N 40°47' E 029°03'1313.0
2014-Aug-21 18:32N 40°45' E 029°20'  
Track history (hours):
 
Tides and Currents Weather Stations Pressure Air Temp Water Temp Dewpoint Dewpoint Depression Visibility Wind Speed Wind Dir Waves Ship Positions

Maike D

Last reported at 2014-Aug-31 10:27 UTC. Time now 2014-Sep-01 18:48 UTC.
Position N 36°46' E 026°25'.

Length 133 m; draft 7 m.

Type: Ship (hazmat cat A). MMSI: 305739000.

Date/timePositionNaut miles runAvg speedWind from/ knotsBaromVisibWave heightAir tempDewpointWater temp
2014-Aug-31 10:27N 36°46' E 026°25'5313.5
2014-Aug-31 06:32N 37°32' E 025°53'  
2014-Aug-28 05:21N 40°44' E 028°37'1113.5
2014-Aug-28 04:33N 40°44' E 028°51'1313.3
2014-Aug-28 03:33N 40°44' E 029°09'1311.8
2014-Aug-28 02:27N 40°45' E 029°26'1011.3
2014-Aug-28 01:33N 40°45' E 029°39'8 0.7
2014-Aug-27 13:31N 40°45' E 029°29'9 9.2
2014-Aug-27 12:33N 40°44' E 029°17'1110.5
2014-Aug-27 11:33N 40°43' E 029°03'1313.0
2014-Aug-27 10:33N 40°36' E 028°49'17 1.3
2014-Aug-26 21:21N 40°25' E 029°05'308 6.6
2014-Aug-24 22:18N 43°26' E 034°40'1013.5
2014-Aug-24 21:33N 43°31' E 034°53'1413.5
2014-Aug-24 20:33N 43°37' E 035°09'1313.5
2014-Aug-24 19:33N 43°43' E 035°26'1413.5
2014-Aug-24 18:33N 43°49' E 035°43'1413.6
2014-Aug-24 17:33N 43°55' E 035°60'1413.6
2014-Aug-24 16:33N 44°01' E 036°17'1313.4
2014-Aug-24 15:33N 44°07' E 036°33'1413.6
2014-Aug-24 14:33N 44°14' E 036°50'1514.0
2014-Aug-24 13:31N 44°20' E 037°08'2813.8
2014-Aug-24 11:28N 44°34' E 037°43'1010.7
2014-Aug-24 10:34N 44°43' E 037°48'1 0.7
2014-Aug-24 09:31N 44°43' E 037°49'0 0.0
2014-Aug-24 08:31N 44°43' E 037°49'0 0.0
2014-Aug-24 07:31N 44°43' E 037°49'0 0.0
2014-Aug-24 06:31N 44°43' E 037°49'0 0.0
2014-Aug-24 05:31N 44°43' E 037°49'0 0.0
2014-Aug-24 04:31N 44°43' E 037°49'0 0.0
2014-Aug-24 03:31N 44°43' E 037°49'0 0.0
2014-Aug-24 02:31N 44°43' E 037°49'0 0.0
2014-Aug-24 01:31N 44°43' E 037°49'0 0.0
2014-Aug-24 00:31N 44°43' E 037°49'0 0.0
2014-Aug-23 23:31N 44°43' E 037°49'0 0.0
2014-Aug-23 22:31N 44°43' E 037°49'0 0.0
2014-Aug-23 21:31N 44°43' E 037°49'0 0.0
2014-Aug-23 20:31N 44°43' E 037°49'0 0.0
2014-Aug-23 19:31N 44°43' E 037°49'41211.7
2014-Aug-22 08:27N 41°24' E 029°35'1314.1
2014-Aug-22 07:32N 41°18' E 029°20'2511.4
2014-Aug-22 05:21N 40°59' E 028°60'1011.3
2014-Aug-22 04:30N 40°49' E 028°59'8 6.9
2014-Aug-22 03:22N 40°42' E 028°55'2 0.8
2014-Aug-22 01:19N 40°43' E 028°57'1 0.9
2014-Aug-22 00:13N 40°44' E 028°58'1 1.2
2014-Aug-21 23:31N 40°44' E 028°59'1 1.2
2014-Aug-21 22:25N 40°45' E 028°59'1 1.3
2014-Aug-21 21:25N 40°47' E 029°00'1 1.3
2014-Aug-21 20:19N 40°48' E 029°01'2 2.3
2014-Aug-21 19:33N 40°47' E 029°03'1313.0
2014-Aug-21 18:32N 40°45' E 029°20'  

Dump ship's entire track history